createdAt,value
2019-01-15T00:00:53.830Z,99.99
2019-01-15T00:01:53.790Z,99.99
2019-01-15T00:02:53.756Z,99.99
2019-01-15T00:03:53.715Z,99.99
2019-01-15T00:04:53.676Z,99.99
2019-01-15T00:05:53.633Z,99.99
2019-01-15T00:06:53.607Z,99.99
2019-01-15T00:07:53.560Z,99.99
2019-01-15T00:08:53.519Z,99.99
2019-01-15T00:09:53.480Z,99.99
2019-01-15T00:10:53.438Z,99.99
2019-01-15T00:11:53.405Z,99.99
2019-01-15T00:12:53.360Z,99.99
2019-01-15T00:13:53.329Z,99.99
2019-01-15T00:14:53.291Z,99.99
2019-01-15T00:16:00.916Z,99.99
2019-01-15T00:16:53.199Z,99.99
2019-01-15T00:17:53.173Z,99.99
2019-01-15T00:18:53.140Z,99.99
2019-01-15T00:19:53.093Z,99.99
2019-01-15T00:20:53.052Z,99.99
2019-01-15T00:21:53.016Z,99.99
2019-01-15T00:22:52.972Z,99.99
2019-01-15T00:23:52.938Z,99.99
2019-01-15T00:24:52.896Z,99.99
2019-01-15T00:25:52.868Z,99.99
2019-01-15T00:26:52.811Z,99.99
2019-01-15T00:27:52.793Z,99.99
2019-01-15T00:28:52.746Z,99.99
2019-01-15T00:29:52.698Z,99.99
2019-01-15T00:30:52.667Z,99.99
2019-01-15T00:31:52.624Z,99.99
2019-01-15T00:32:52.593Z,99.99
2019-01-15T00:33:52.558Z,99.99
2019-01-15T00:34:52.507Z,99.99
2019-01-15T00:35:52.467Z,99.99
2019-01-15T00:36:52.445Z,99.99
2019-01-15T00:37:52.392Z,99.99
2019-01-15T00:38:52.363Z,99.99
2019-01-15T00:39:52.329Z,99.99
2019-01-15T00:40:52.287Z,99.99
2019-01-15T00:41:52.244Z,99.99
2019-01-15T00:42:52.207Z,99.99
2019-01-15T00:43:52.173Z,99.99
2019-01-15T00:44:52.124Z,99.99
2019-01-15T00:45:52.085Z,99.99
2019-01-15T00:46:52.048Z,99.99
2019-01-15T00:47:52.014Z,99.99
2019-01-15T00:48:51.974Z,99.99
2019-01-15T00:49:51.933Z,99.99
2019-01-15T00:50:51.893Z,99.99
2019-01-15T00:51:51.864Z,99.99
2019-01-15T00:52:51.819Z,99.99
2019-01-15T00:53:51.792Z,99.99
2019-01-15T00:54:51.748Z,99.99
2019-01-15T00:55:51.703Z,99.99
2019-01-15T00:56:51.669Z,99.99
2019-01-15T00:57:51.623Z,99.99
2019-01-15T00:58:51.608Z,99.99
2019-01-15T00:59:51.545Z,99.99
2019-01-15T01:00:51.518Z,99.99
2019-01-15T01:01:51.469Z,99.99
2019-01-15T01:02:51.438Z,99.99
2019-01-15T01:03:51.394Z,99.99
2019-01-15T01:04:51.358Z,99.99
2019-01-15T01:05:51.318Z,99.99
2019-01-15T01:06:51.279Z,99.99
2019-01-15T01:07:51.234Z,99.99
2019-01-15T01:08:51.203Z,99.99
2019-01-15T01:09:51.175Z,99.99
2019-01-15T01:10:51.134Z,99.99
2019-01-15T01:11:51.085Z,99.99
2019-01-15T01:12:51.041Z,99.99
2019-01-15T01:13:51.021Z,99.99
2019-01-15T01:14:50.966Z,99.99
2019-01-15T01:15:50.936Z,99.99
2019-01-15T01:16:50.891Z,99.99
2019-01-15T01:17:50.856Z,99.99
2019-01-15T01:18:50.810Z,99.99
2019-01-15T01:19:50.785Z,99.99
2019-01-15T01:20:50.741Z,99.99
2019-01-15T01:21:50.701Z,99.99
2019-01-15T01:22:50.657Z,99.99
2019-01-15T01:23:50.624Z,99.99
2019-01-15T01:24:50.590Z,99.99
2019-01-15T01:25:50.543Z,99.99
2019-01-15T01:26:50.507Z,99.99
2019-01-15T01:27:50.470Z,99.99
2019-01-15T01:28:50.434Z,99.99
2019-01-15T01:29:50.391Z,99.99
2019-01-15T01:30:50.359Z,99.99
2019-01-15T01:31:50.311Z,99.99
2019-01-15T01:32:50.291Z,99.99
2019-01-15T01:33:50.235Z,99.99
2019-01-15T01:34:50.207Z,99.99
2019-01-15T01:35:50.165Z,99.99
2019-01-15T01:36:50.116Z,99.99
2019-01-15T01:37:50.102Z,99.99
2019-01-15T01:38:50.060Z,99.99
2019-01-15T01:39:50.008Z,99.99
2019-01-15T01:40:49.971Z,99.99
2019-01-15T01:41:49.932Z,99.99
2019-01-15T01:42:49.892Z,99.99
2019-01-15T01:43:49.850Z,99.99
2019-01-15T01:44:49.815Z,99.99
2019-01-15T01:45:49.771Z,99.99
2019-01-15T01:46:49.747Z,99.99
2019-01-15T01:47:49.695Z,99.99
2019-01-15T01:48:49.663Z,99.99
2019-01-15T01:49:49.630Z,99.99
2019-01-15T01:50:49.592Z,99.99
2019-01-15T01:51:49.546Z,99.99
2019-01-15T01:52:49.513Z,99.99
2019-01-15T01:53:49.483Z,99.99
2019-01-15T01:54:49.436Z,99.99
2019-01-15T01:55:49.396Z,99.99
2019-01-15T01:56:49.357Z,99.99
2019-01-15T01:57:49.315Z,99.99
2019-01-15T01:58:49.291Z,99.99
2019-01-15T01:59:49.243Z,99.99
2019-01-15T02:00:49.203Z,99.99
2019-01-15T02:01:49.163Z,99.99
2019-01-15T02:02:49.132Z,99.99
2019-01-15T02:03:49.086Z,99.99
2019-01-15T02:04:49.061Z,99.99
2019-01-15T02:05:49.029Z,99.99
2019-01-15T02:06:48.966Z,99.99
2019-01-15T02:07:48.937Z,99.99
2019-01-15T02:08:48.897Z,99.99
2019-01-15T02:09:48.862Z,99.99
2019-01-15T02:10:48.814Z,99.99
2019-01-15T02:11:48.789Z,99.99
2019-01-15T02:12:48.744Z,99.99
2019-01-15T02:13:48.707Z,99.99
2019-01-15T02:14:48.659Z,99.99
2019-01-15T02:15:48.633Z,99.99
2019-01-15T02:16:48.593Z,99.99
2019-01-15T02:17:48.552Z,99.99
2019-01-15T02:18:48.512Z,99.99
2019-01-15T02:19:48.482Z,99.99
2019-01-15T02:20:48.440Z,99.99
2019-01-15T02:21:48.402Z,99.99
2019-01-15T02:22:48.362Z,99.99
2019-01-15T02:23:48.329Z,99.99
2019-01-15T02:24:48.284Z,99.99
2019-01-15T02:25:48.259Z,99.99
2019-01-15T02:26:48.212Z,99.99
2019-01-15T02:27:48.181Z,99.99
2019-01-15T02:28:48.147Z,99.99
2019-01-15T02:29:48.094Z,99.99
2019-01-15T02:30:48.062Z,99.99
2019-01-15T02:31:48.022Z,99.99
2019-01-15T02:32:47.982Z,99.99
2019-01-15T02:33:47.948Z,99.99
2019-01-15T02:34:47.937Z,99.99
2019-01-15T02:35:47.863Z,99.99
2019-01-15T02:36:47.827Z,99.99
2019-01-15T02:37:47.789Z,99.99
2019-01-15T02:38:47.761Z,99.99
2019-01-15T02:39:47.715Z,99.99
2019-01-15T02:40:47.771Z,99.99
2019-01-15T02:41:47.657Z,99.99
2019-01-15T02:42:47.610Z,99.99
2019-01-15T02:43:47.564Z,99.99
2019-01-15T02:44:47.535Z,99.99
2019-01-15T02:45:47.496Z,99.99
2019-01-15T02:46:47.450Z,99.99
2019-01-15T02:47:47.410Z,99.99
2019-01-15T02:48:47.374Z,99.99
2019-01-15T02:49:47.346Z,99.99
2019-01-15T02:50:47.310Z,99.99
2019-01-15T02:51:47.265Z,99.99
2019-01-15T02:52:47.224Z,99.99
2019-01-15T02:53:47.188Z,99.99
2019-01-15T02:54:47.152Z,99.99
2019-01-15T02:55:47.109Z,99.99
2019-01-15T02:56:47.076Z,99.99
2019-01-15T02:57:47.041Z,99.99
2019-01-15T02:58:46.997Z,99.99
2019-01-15T02:59:46.959Z,99.99
2019-01-15T03:00:46.937Z,99.99
2019-01-15T03:01:46.891Z,99.99
2019-01-15T03:02:46.850Z,99.99
2019-01-15T03:03:46.805Z,99.99
2019-01-15T03:04:46.764Z,99.99
2019-01-15T03:05:46.730Z,99.99
2019-01-15T03:06:46.696Z,99.99
2019-01-15T03:07:46.657Z,99.99
2019-01-15T03:08:46.612Z,99.99
2019-01-15T03:09:46.582Z,99.99
2019-01-15T03:10:46.546Z,99.99
2019-01-15T03:11:46.507Z,99.99
2019-01-15T03:12:54.405Z,99.99
2019-01-15T03:13:46.440Z,99.99
2019-01-15T03:14:46.391Z,99.99
2019-01-15T03:15:46.347Z,99.99
2019-01-15T03:16:46.319Z,99.99
2019-01-15T03:17:46.288Z,99.99
2019-01-15T03:18:47.747Z,99.99
2019-01-15T03:19:46.209Z,99.99
2019-01-15T03:20:54.819Z,99.99
2019-01-15T03:22:50.570Z,99.99
2019-01-15T03:23:50.504Z,99.99
2019-01-15T03:24:50.466Z,99.99
2019-01-15T03:25:50.441Z,99.99
2019-01-15T03:26:50.391Z,99.99
2019-01-15T03:27:50.373Z,99.99
2019-01-15T03:28:50.331Z,99.99
2019-01-15T03:29:50.283Z,99.99
2019-01-15T03:30:50.245Z,99.99
2019-01-15T03:31:50.199Z,99.99
2019-01-15T03:32:50.161Z,99.99
2019-01-15T03:33:50.127Z,99.99
2019-01-15T03:34:50.086Z,99.99
2019-01-15T03:35:50.132Z,99.99
2019-01-15T03:36:50.013Z,99.99
2019-01-15T03:37:50.027Z,99.99
2019-01-15T03:38:49.936Z,99.99
2019-01-15T03:39:49.900Z,99.99
2019-01-15T03:40:49.846Z,99.99
2019-01-15T03:41:49.930Z,99.99
2019-01-15T03:42:49.801Z,99.99
2019-01-15T03:43:49.740Z,99.99
2019-01-15T03:44:49.711Z,99.99
2019-01-15T03:45:49.665Z,99.99
2019-01-15T03:46:49.632Z,99.99
2019-01-15T03:47:49.592Z,99.99
2019-01-15T03:48:49.563Z,99.99
2019-01-15T03:49:49.526Z,99.99
2019-01-15T03:50:49.477Z,99.99
2019-01-15T03:51:49.442Z,99.99
2019-01-15T03:52:49.404Z,99.99
2019-01-15T03:53:49.366Z,99.99
2019-01-15T03:54:49.337Z,99.99
2019-01-15T03:55:49.293Z,99.99
2019-01-15T03:56:49.251Z,99.99
2019-01-15T03:57:49.211Z,99.99
2019-01-15T03:58:49.180Z,99.99
2019-01-15T03:59:49.159Z,99.99
2019-01-15T04:00:49.099Z,99.99
2019-01-15T04:01:49.069Z,99.99
2019-01-15T04:02:49.025Z,99.99
2019-01-15T04:03:49.008Z,99.99
2019-01-15T04:04:48.957Z,99.99
2019-01-15T04:05:48.913Z,99.99
2019-01-15T04:06:48.878Z,99.99
2019-01-15T04:07:48.840Z,99.99
2019-01-15T04:08:48.805Z,99.99
2019-01-15T04:09:48.764Z,99.99
2019-01-15T04:10:48.720Z,99.99
2019-01-15T04:11:48.697Z,99.99
2019-01-15T04:12:48.658Z,99.99
2019-01-15T04:13:48.609Z,99.99
2019-01-15T04:14:48.574Z,99.99
2019-01-15T04:15:48.537Z,99.99
2019-01-15T04:16:48.490Z,99.99
2019-01-15T04:17:48.463Z,99.99
2019-01-15T04:18:48.440Z,99.99
2019-01-15T04:19:48.379Z,99.99
2019-01-15T04:20:48.340Z,99.99
2019-01-15T04:21:48.325Z,99.99
2019-01-15T04:22:48.283Z,99.99
2019-01-15T04:23:48.240Z,99.99
2019-01-15T04:24:48.195Z,99.99
2019-01-15T04:25:48.158Z,99.99
2019-01-15T04:26:48.115Z,99.99
2019-01-15T04:27:48.083Z,99.99
2019-01-15T04:28:48.044Z,99.99
2019-01-15T04:29:48.007Z,99.99
2019-01-15T04:30:47.974Z,99.99
2019-01-15T04:31:47.928Z,99.99
2019-01-15T04:32:47.890Z,99.99
2019-01-15T04:33:47.848Z,99.99
2019-01-15T04:34:49.223Z,99.99
2019-01-15T04:35:47.784Z,99.99
2019-01-15T04:36:47.748Z,99.99
2019-01-15T04:37:47.719Z,99.99
2019-01-15T04:38:47.663Z,99.99
2019-01-15T04:39:47.631Z,99.99
2019-01-15T04:40:47.586Z,99.99
2019-01-15T04:41:47.554Z,99.99
2019-01-15T04:42:47.519Z,99.99
2019-01-15T04:43:47.478Z,99.99
2019-01-15T04:44:47.431Z,99.99
2019-01-15T04:45:47.419Z,99.99
2019-01-15T04:46:47.366Z,99.99
2019-01-15T04:47:47.368Z,99.99
2019-01-15T04:48:47.290Z,99.99
2019-01-15T04:49:47.255Z,99.99
2019-01-15T04:50:47.211Z,99.99
2019-01-15T04:51:47.176Z,99.99
2019-01-15T04:52:47.136Z,99.99
2019-01-15T04:53:47.092Z,99.99
2019-01-15T04:54:47.056Z,99.99
2019-01-15T04:55:47.026Z,99.99
2019-01-15T04:56:46.985Z,99.99
2019-01-15T04:57:46.946Z,99.99
2019-01-15T04:58:46.907Z,99.99
2019-01-15T04:59:46.875Z,99.99
2019-01-15T05:00:46.834Z,99.99
2019-01-15T05:01:46.806Z,99.99
2019-01-15T05:02:46.766Z,99.99
2019-01-15T05:03:46.712Z,99.99
2019-01-15T05:04:46.691Z,99.99
2019-01-15T05:05:46.650Z,99.99
2019-01-15T05:06:46.607Z,99.99
2019-01-15T05:07:46.571Z,99.99
2019-01-15T05:08:46.531Z,99.99
2019-01-15T05:09:46.496Z,99.99
2019-01-15T05:10:46.465Z,99.99
2019-01-15T05:11:46.421Z,99.99
2019-01-15T05:12:46.399Z,99.99
2019-01-15T05:13:46.350Z,99.99
2019-01-15T05:14:46.316Z,99.99
2019-01-15T05:15:46.272Z,99.99
2019-01-15T05:16:46.264Z,99.99
2019-01-15T05:17:46.197Z,99.99
2019-01-15T05:18:46.150Z,99.99
2019-01-15T05:19:46.117Z,99.99
2019-01-15T05:20:46.083Z,99.99
2019-01-15T05:21:46.041Z,99.99
2019-01-15T05:22:46.016Z,99.99
2019-01-15T05:23:45.972Z,99.99
2019-01-15T05:24:45.942Z,99.99
2019-01-15T05:25:45.889Z,99.99
2019-01-15T05:26:45.853Z,99.99
2019-01-15T05:27:45.819Z,99.99
2019-01-15T05:28:45.780Z,99.99
2019-01-15T05:29:45.752Z,99.99
2019-01-15T05:30:45.706Z,99.99
2019-01-15T05:31:45.667Z,99.99
2019-01-15T05:32:45.641Z,99.99
2019-01-15T05:33:45.589Z,99.99
2019-01-15T05:34:45.555Z,99.99
2019-01-15T05:35:45.511Z,99.99
2019-01-15T05:36:45.479Z,99.99
2019-01-15T05:37:45.444Z,99.99
2019-01-15T05:38:45.412Z,99.99
2019-01-15T05:39:45.368Z,99.99
2019-01-15T05:40:45.325Z,99.99
2019-01-15T05:41:45.283Z,99.99
2019-01-15T05:42:45.245Z,99.99
2019-01-15T05:43:45.210Z,99.99
2019-01-15T05:44:45.168Z,99.99
2019-01-15T05:45:45.138Z,99.99
2019-01-15T05:46:45.112Z,99.99
2019-01-15T05:47:45.066Z,99.99
2019-01-15T05:48:45.026Z,99.99
2019-01-15T05:49:44.976Z,99.99
2019-01-15T05:50:44.943Z,99.99
2019-01-15T05:51:44.916Z,99.99
2019-01-15T05:52:44.873Z,99.99
2019-01-15T05:53:44.837Z,99.99
2019-01-15T05:54:44.798Z,99.99
2019-01-15T05:55:44.758Z,99.99
2019-01-15T05:56:44.733Z,99.99
2019-01-15T05:57:44.698Z,99.99
2019-01-15T05:58:44.653Z,99.99
2019-01-15T05:59:44.609Z,99.99
2019-01-15T06:00:44.574Z,99.99
2019-01-15T06:01:44.538Z,99.99
2019-01-15T06:02:44.513Z,99.99
2019-01-15T06:03:44.458Z,99.99
2019-01-15T06:04:44.424Z,99.99
2019-01-15T06:05:44.385Z,99.99
2019-01-15T06:06:44.352Z,99.99
2019-01-15T06:07:44.313Z,99.99
2019-01-15T06:08:44.270Z,99.99
2019-01-15T06:09:44.249Z,99.99
2019-01-15T06:10:44.195Z,99.99
2019-01-15T06:11:44.154Z,99.99
2019-01-15T06:12:44.115Z,99.99
2019-01-15T06:13:44.073Z,99.99
2019-01-15T06:14:44.035Z,99.99
2019-01-15T06:15:44.006Z,99.99
2019-01-15T06:16:43.979Z,99.99
2019-01-15T06:17:43.931Z,99.99
2019-01-15T06:18:43.898Z,99.99
2019-01-15T06:19:43.850Z,99.99
2019-01-15T06:20:43.814Z,99.99
2019-01-15T06:21:43.768Z,99.99
2019-01-15T06:22:43.741Z,99.99
2019-01-15T06:23:43.710Z,99.99
2019-01-15T06:24:43.661Z,99.99
2019-01-15T06:25:43.626Z,99.99
2019-01-15T06:26:43.585Z,99.99
2019-01-15T06:27:43.546Z,99.99
2019-01-15T06:28:43.509Z,99.99
2019-01-15T06:29:43.475Z,99.99
2019-01-15T06:30:43.440Z,99.99
2019-01-15T06:31:43.409Z,99.99
2019-01-15T06:32:43.365Z,99.99
2019-01-15T06:33:43.333Z,99.99
2019-01-15T06:34:43.286Z,99.99
2019-01-15T06:35:43.253Z,99.99
2019-01-15T06:36:43.209Z,99.99
2019-01-15T06:37:43.173Z,99.99
2019-01-15T06:38:43.142Z,99.99
2019-01-15T06:39:43.106Z,99.99
2019-01-15T06:40:43.059Z,99.99
2019-01-15T06:41:43.021Z,99.99
2019-01-15T06:42:42.990Z,99.99
2019-01-15T06:43:49.736Z,99.99
2019-01-15T06:44:42.915Z,99.99
2019-01-15T06:45:42.880Z,99.99
2019-01-15T06:46:42.827Z,99.99
2019-01-15T06:47:42.791Z,99.99
2019-01-15T06:48:42.757Z,99.99
2019-01-15T06:49:42.717Z,99.99
2019-01-15T06:50:42.683Z,99.99
2019-01-15T06:51:42.649Z,99.99
2019-01-15T06:52:42.618Z,99.99
2019-01-15T06:53:42.592Z,99.99
2019-01-15T06:54:42.557Z,99.99
2019-01-15T06:55:42.505Z,99.99
2019-01-15T06:56:42.467Z,99.99
2019-01-15T06:57:42.423Z,99.99
2019-01-15T06:58:42.388Z,99.99
2019-01-15T06:59:42.349Z,99.99
2019-01-15T07:00:42.317Z,99.99
2019-01-15T07:01:42.272Z,99.99
2019-01-15T07:02:42.237Z,99.99
2019-01-15T07:03:42.192Z,99.99
2019-01-15T07:04:43.993Z,99.99
2019-01-15T07:05:42.128Z,99.99
2019-01-15T07:06:42.083Z,99.99
2019-01-15T07:07:42.075Z,99.99
2019-01-15T07:08:42.011Z,99.99
2019-01-15T07:09:41.981Z,99.99
2019-01-15T07:10:41.938Z,99.99
2019-01-15T07:11:41.897Z,99.99
2019-01-15T07:12:41.858Z,99.99
2019-01-15T07:13:41.829Z,99.99
2019-01-15T07:14:41.785Z,99.99
2019-01-15T07:15:41.747Z,99.99
2019-01-15T07:16:41.721Z,99.99
2019-01-15T07:17:41.676Z,99.99
2019-01-15T07:18:41.629Z,99.99
2019-01-15T07:19:41.603Z,99.99
2019-01-15T07:20:41.561Z,99.99
2019-01-15T07:21:41.519Z,99.99
2019-01-15T07:22:41.499Z,99.99
2019-01-15T07:23:41.462Z,99.99
2019-01-15T07:24:41.406Z,99.99
2019-01-15T07:25:41.377Z,99.99
2019-01-15T07:26:41.332Z,99.99
2019-01-15T07:27:49.946Z,99.99
2019-01-15T07:29:45.708Z,99.99
2019-01-15T07:30:45.648Z,99.99
2019-01-15T07:31:45.617Z,99.99
2019-01-15T07:32:45.572Z,99.99
2019-01-15T07:33:45.533Z,99.99
2019-01-15T07:34:45.498Z,99.99
2019-01-15T07:35:45.457Z,99.99
2019-01-15T07:36:45.432Z,99.99
2019-01-15T07:37:45.394Z,99.99
2019-01-15T07:38:45.352Z,99.99
2019-01-15T07:39:45.315Z,99.99
2019-01-15T07:40:45.274Z,99.99
2019-01-15T07:41:45.225Z,99.99
2019-01-15T07:42:45.192Z,99.99
2019-01-15T07:43:45.161Z,99.99
2019-01-15T07:44:45.110Z,99.99
2019-01-15T07:45:45.150Z,99.99
2019-01-15T07:46:45.044Z,99.99
2019-01-15T07:47:45.007Z,99.99
2019-01-15T07:48:44.963Z,99.99
2019-01-15T07:49:44.938Z,99.99
2019-01-15T07:50:44.907Z,99.99
2019-01-15T07:51:44.858Z,99.99
2019-01-15T07:52:44.844Z,99.99
2019-01-15T07:53:44.784Z,99.99
2019-01-15T07:54:44.752Z,99.99
2019-01-15T07:55:44.700Z,99.99
2019-01-15T07:56:44.680Z,99.99
2019-01-15T07:57:44.639Z,99.99
2019-01-15T07:58:44.601Z,99.99
2019-01-15T07:59:44.563Z,99.99
2019-01-15T08:00:44.526Z,99.99
2019-01-15T08:01:44.485Z,99.99
2019-01-15T08:02:44.449Z,99.99
2019-01-15T08:03:44.419Z,99.99
2019-01-15T08:04:44.380Z,99.99
2019-01-15T08:05:44.334Z,99.99
2019-01-15T08:06:44.313Z,99.99
2019-01-15T08:07:44.268Z,99.99
2019-01-15T08:08:44.225Z,99.99
2019-01-15T08:09:44.191Z,99.99
2019-01-15T08:10:44.145Z,99.99
2019-01-15T08:11:44.116Z,99.99
2019-01-15T08:12:44.081Z,99.99
2019-01-15T08:13:44.045Z,99.99
2019-01-15T08:14:44.004Z,99.99
2019-01-15T08:15:43.965Z,99.99
2019-01-15T08:16:43.926Z,99.99
2019-01-15T08:17:43.885Z,99.99
2019-01-15T08:18:43.850Z,99.99
2019-01-15T08:19:43.821Z,99.99
2019-01-15T08:20:43.776Z,99.99
2019-01-15T08:21:43.737Z,99.99
2019-01-15T08:22:43.708Z,99.99
2019-01-15T08:23:43.660Z,99.99
2019-01-15T08:24:43.621Z,99.99
2019-01-15T08:25:43.591Z,99.99
2019-01-15T08:26:43.556Z,99.99
2019-01-15T08:27:43.515Z,99.99
2019-01-15T08:28:43.479Z,99.99
2019-01-15T08:29:43.440Z,99.99
2019-01-15T08:30:43.415Z,99.99
2019-01-15T08:31:43.365Z,99.99
2019-01-15T08:32:43.326Z,99.99
2019-01-15T08:33:43.300Z,99.99
2019-01-15T08:34:43.261Z,99.99
2019-01-15T08:35:43.231Z,99.99
2019-01-15T08:36:43.187Z,99.99
2019-01-15T08:37:43.142Z,99.99
2019-01-15T08:38:43.110Z,99.99
2019-01-15T08:39:43.066Z,99.99
2019-01-15T08:40:43.036Z,99.99
2019-01-15T08:41:43.012Z,99.99
2019-01-15T08:42:42.975Z,99.99
2019-01-15T08:43:42.920Z,99.99
2019-01-15T08:44:42.888Z,99.99
2019-01-15T08:45:42.853Z,99.99
2019-01-15T08:46:42.817Z,99.99
2019-01-15T08:47:42.765Z,99.99
2019-01-15T08:48:42.752Z,99.99
2019-01-15T08:49:42.701Z,99.99
2019-01-15T08:50:42.666Z,99.99
2019-01-15T08:51:42.648Z,99.99
2019-01-15T08:52:42.591Z,99.99
2019-01-15T08:53:42.546Z,99.99
2019-01-15T08:54:42.522Z,99.99
2019-01-15T08:55:42.497Z,99.99
2019-01-15T08:56:42.438Z,99.99
2019-01-15T08:57:42.399Z,99.99
2019-01-15T08:58:42.373Z,99.99
2019-01-15T08:59:42.334Z,99.99
2019-01-15T09:00:42.296Z,99.99
2019-01-15T09:01:42.267Z,99.99
2019-01-15T09:02:42.234Z,99.99
2019-01-15T09:03:42.182Z,99.99
2019-01-15T09:04:42.147Z,99.99
2019-01-15T09:05:42.206Z,99.99
2019-01-15T09:06:42.082Z,99.99
2019-01-15T09:07:42.036Z,99.99
2019-01-15T09:08:41.999Z,99.99
2019-01-15T09:09:41.969Z,99.99
2019-01-15T09:10:41.937Z,99.99
2019-01-15T09:11:41.887Z,99.99
2019-01-15T09:12:41.849Z,99.99
2019-01-15T09:13:41.818Z,99.99
2019-01-15T09:14:41.777Z,99.99
2019-01-15T09:15:41.748Z,99.99
2019-01-15T09:16:41.710Z,99.99
2019-01-15T09:17:41.671Z,99.99
2019-01-15T09:18:41.629Z,99.99
2019-01-15T09:19:41.588Z,99.99
2019-01-15T09:20:41.553Z,99.99
2019-01-15T09:21:41.538Z,99.99
2019-01-15T09:22:41.492Z,99.99
2019-01-15T09:23:41.449Z,99.99
2019-01-15T09:24:41.420Z,99.99
2019-01-15T09:25:41.374Z,99.99
2019-01-15T09:26:41.338Z,99.99
2019-01-15T09:27:41.310Z,99.99
2019-01-15T09:28:41.285Z,99.99
2019-01-15T09:29:41.233Z,99.99
2019-01-15T09:30:41.199Z,99.99
2019-01-15T09:31:41.164Z,99.99
2019-01-15T09:32:41.120Z,99.99
2019-01-15T09:33:41.105Z,99.99
2019-01-15T09:34:41.059Z,99.99
2019-01-15T09:35:41.023Z,99.99
2019-01-15T09:36:40.985Z,99.99
2019-01-15T09:37:40.943Z,99.99
2019-01-15T09:38:40.900Z,99.99
2019-01-15T09:39:40.869Z,99.99
2019-01-15T09:40:40.849Z,99.99
2019-01-15T09:41:40.800Z,99.99
2019-01-15T09:42:40.756Z,99.99
2019-01-15T09:43:40.718Z,99.99
2019-01-15T09:44:40.685Z,99.99
2019-01-15T09:45:40.650Z,99.99
2019-01-15T09:46:40.624Z,99.99
2019-01-15T09:47:40.575Z,99.99
2019-01-15T09:48:40.534Z,99.99
2019-01-15T09:49:40.508Z,99.99
2019-01-15T09:50:40.476Z,99.99
2019-01-15T09:51:40.441Z,99.99
2019-01-15T09:52:40.416Z,99.99
2019-01-15T09:53:40.369Z,99.99
2019-01-15T09:54:40.331Z,99.99
2019-01-15T09:55:40.296Z,99.99
2019-01-15T09:56:40.496Z,99.99
2019-01-15T09:57:40.261Z,99.99
2019-01-15T09:58:40.180Z,99.99
2019-01-15T09:59:40.166Z,99.99
2019-01-15T10:00:40.152Z,99.99
2019-01-15T10:01:40.090Z,99.99
2019-01-15T10:02:40.050Z,99.99
2019-01-15T10:03:40.010Z,99.99
2019-01-15T10:04:39.994Z,99.99
2019-01-15T10:05:39.942Z,99.99
2019-01-15T10:06:39.917Z,99.99
2019-01-15T10:07:39.869Z,99.99
2019-01-15T10:08:39.850Z,99.99
2019-01-15T10:09:39.798Z,99.99
2019-01-15T10:10:39.762Z,99.99
2019-01-15T10:11:39.731Z,99.99
2019-01-15T10:12:39.699Z,99.99
2019-01-15T10:13:39.661Z,99.99
2019-01-15T10:14:41.370Z,99.99
2019-01-15T10:15:39.598Z,99.99
2019-01-15T10:16:39.551Z,99.99
2019-01-15T10:17:39.511Z,99.99
2019-01-15T10:18:39.476Z,99.99
2019-01-15T10:19:39.446Z,99.99
2019-01-15T10:20:39.405Z,99.99
2019-01-15T10:21:39.868Z,99.99
2019-01-15T10:22:39.337Z,99.99
2019-01-15T10:23:39.307Z,99.99
2019-01-15T10:24:39.272Z,99.99
2019-01-15T10:25:39.227Z,99.99
2019-01-15T10:26:39.208Z,99.99
2019-01-15T10:27:39.157Z,99.99
2019-01-15T10:28:39.129Z,99.99
2019-01-15T10:29:39.091Z,99.99
2019-01-15T10:30:39.043Z,99.99
2019-01-15T10:31:39.048Z,99.99
2019-01-15T10:32:38.982Z,99.99
2019-01-15T10:33:38.942Z,99.99
2019-01-15T10:34:38.919Z,99.99
2019-01-15T10:35:38.871Z,99.99
2019-01-15T10:36:38.841Z,99.99
2019-01-15T10:37:38.811Z,99.99
2019-01-15T10:38:38.779Z,99.99
2019-01-15T10:39:38.738Z,99.99
2019-01-15T10:40:38.698Z,99.99
2019-01-15T10:41:38.669Z,99.99
2019-01-15T10:42:38.632Z,99.99
2019-01-15T10:43:38.596Z,99.99
2019-01-15T10:44:38.556Z,99.99
2019-01-15T10:45:38.524Z,99.99
2019-01-15T10:46:38.492Z,99.99
2019-01-15T10:47:38.458Z,99.99
2019-01-15T10:48:38.428Z,99.99
2019-01-15T10:49:38.403Z,99.99
2019-01-15T10:50:38.348Z,99.99
2019-01-15T10:51:38.310Z,99.99
2019-01-15T10:52:38.288Z,99.99
2019-01-15T10:53:38.270Z,99.99
2019-01-15T10:54:38.208Z,99.99
2019-01-15T10:55:38.183Z,99.99
2019-01-15T10:56:38.139Z,99.99
2019-01-15T10:57:38.103Z,99.99
2019-01-15T10:58:38.069Z,99.99
2019-01-15T10:59:38.057Z,99.99
2019-01-15T11:00:38.002Z,99.99
2019-01-15T11:01:37.968Z,99.99
2019-01-15T11:02:37.934Z,99.99
2019-01-15T11:03:37.897Z,99.99
2019-01-15T11:04:37.863Z,99.99
2019-01-15T11:05:37.828Z,99.99
2019-01-15T11:06:37.784Z,99.99
2019-01-15T11:07:37.757Z,99.99
2019-01-15T11:08:37.776Z,99.99
2019-01-15T11:09:37.678Z,99.99
2019-01-15T11:10:37.652Z,99.99
2019-01-15T11:11:37.618Z,99.99
2019-01-15T11:12:37.578Z,99.99
2019-01-15T11:13:37.544Z,99.99
2019-01-15T11:14:37.503Z,99.99
2019-01-15T11:15:43.168Z,99.99
2019-01-15T11:16:37.444Z,99.99
2019-01-15T11:17:37.399Z,99.99
2019-01-15T11:18:37.363Z,99.99
2019-01-15T11:19:37.338Z,99.99
2019-01-15T11:20:37.294Z,99.99
2019-01-15T11:21:37.269Z,99.99
2019-01-15T11:22:37.219Z,99.74
2019-01-15T11:23:37.195Z,99.16
2019-01-15T11:24:37.159Z,98.97
2019-01-15T11:25:37.115Z,98.31
2019-01-15T11:26:37.085Z,98.31
2019-01-15T11:27:37.046Z,98.31
2019-01-15T11:28:37.011Z,98.22
2019-01-15T11:29:36.989Z,98.22
2019-01-15T11:30:36.943Z,98.31
2019-01-15T11:31:36.911Z,97.83
2019-01-15T11:32:36.889Z,98.12
2019-01-15T11:33:36.840Z,98.22
2019-01-15T11:34:36.805Z,97.08
2019-01-15T11:35:36.761Z,97.74
2019-01-15T11:36:45.383Z,98.50
2019-01-15T11:38:41.149Z,97.55
2019-01-15T11:39:41.086Z,98.22
2019-01-15T11:40:41.050Z,97.27
2019-01-15T11:41:41.019Z,98.22
2019-01-15T11:42:40.992Z,98.50
2019-01-15T11:43:40.955Z,98.22
2019-01-15T11:44:40.911Z,97.93
2019-01-15T11:45:40.875Z,98.22
2019-01-15T11:46:40.836Z,98.41
2019-01-15T11:47:40.805Z,98.22
2019-01-15T11:48:40.776Z,99.07
2019-01-15T11:49:40.742Z,98.41
2019-01-15T11:50:40.711Z,99.16
2019-01-15T11:51:40.667Z,98.41
2019-01-15T11:52:40.641Z,98.31
2019-01-15T11:53:40.620Z,98.97
2019-01-15T11:54:40.567Z,98.31
2019-01-15T11:55:40.540Z,98.31
2019-01-15T11:56:40.487Z,98.69
2019-01-15T11:57:40.455Z,98.60
2019-01-15T11:58:40.421Z,98.41
2019-01-15T11:59:40.381Z,98.22
2019-01-15T12:00:40.351Z,98.31
2019-01-15T12:01:40.319Z,98.41
2019-01-15T12:02:40.272Z,98.60
2019-01-15T12:03:40.242Z,98.12
2019-01-15T12:04:40.207Z,99.16
2019-01-15T12:05:40.173Z,99.55
2019-01-15T12:06:40.135Z,98.50
2019-01-15T12:07:40.096Z,99.55
2019-01-15T12:08:40.056Z,98.97
2019-01-15T12:09:40.025Z,98.79
2019-01-15T12:10:48.681Z,99.74
2019-01-15T12:12:44.409Z,98.88
2019-01-15T12:13:44.337Z,98.88
2019-01-15T12:14:44.307Z,99.07
2019-01-15T12:15:44.298Z,98.22
2019-01-15T12:16:44.248Z,97.83
2019-01-15T12:17:44.226Z,98.69
2019-01-15T12:18:44.173Z,99.16
2019-01-15T12:19:44.128Z,98.22
2019-01-15T12:20:44.103Z,98.50
2019-01-15T12:21:44.057Z,98.50
2019-01-15T12:22:44.023Z,97.93
2019-01-15T12:23:43.987Z,98.50
2019-01-15T12:24:43.948Z,97.74
2019-01-15T12:25:43.921Z,97.64
2019-01-15T12:26:43.896Z,97.45
2019-01-15T12:27:43.847Z,96.69
2019-01-15T12:28:43.821Z,96.69
2019-01-15T12:29:43.783Z,97.55
2019-01-15T12:30:43.747Z,97.64
2019-01-15T12:31:43.696Z,97.36
2019-01-15T12:32:43.665Z,98.31
2019-01-15T12:33:43.641Z,97.27
2019-01-15T12:34:43.603Z,97.27
2019-01-15T12:35:43.563Z,97.45
2019-01-15T12:36:43.527Z,97.60
2019-01-15T12:37:43.483Z,96.98
2019-01-15T12:38:43.449Z,97.45
2019-01-15T12:39:43.430Z,97.17
2019-01-15T12:40:43.378Z,97.50
2019-01-15T12:41:43.350Z,97.83
2019-01-15T12:42:43.307Z,97.36
2019-01-15T12:43:43.275Z,97.83
2019-01-15T12:44:43.238Z,97.17
2019-01-15T12:45:43.209Z,96.79
2019-01-15T12:46:43.168Z,95.94
2019-01-15T12:47:43.144Z,96.17
2019-01-15T12:48:43.105Z,96.84
2019-01-15T12:49:43.067Z,97.45
2019-01-15T12:50:43.038Z,97.50
2019-01-15T12:51:42.990Z,97.36
2019-01-15T12:52:42.961Z,97.41
2019-01-15T12:53:42.914Z,97.50
2019-01-15T12:54:42.882Z,97.41
2019-01-15T12:55:42.847Z,97.97
2019-01-15T12:56:42.822Z,97.69